Time;durP1;ratioP1;P1;durP2;ratioP2;P2;SDS_P1;SDS_P2;PMS_P1;PMS_P2;Temp;Humidity;BMP_temperature;BMP_pressure;BME280_temperature;BME280_humidity;BME280_pressure;Samples;Min_cycle;Max_cycle;Signal;HPM_P1;HPM_P2
2022/01/23 16:10:39;;;;;;;8.13;2.33;;;;;;;;;;5117970;27;20396;-71
2022/01/23 16:13:05;;;;;;;6.15;2.67;;;;;;;;;;5115681;27;20471;-71
2022/01/23 16:15:34;;;;;;;7.10;3.70;;;;;;;;;;5118791;28;20058;-79
2022/01/23 16:18:02;;;;;;;12.05;4.05;;;;;;;;;;5111446;28;20044;-72
2022/01/23 16:20:28;;;;;;;10.73;3.28;;;;;;;;;;5108383;28;20062;-69
2022/01/23 16:22:54;;;;;;;6.28;2.88;;;;;;;;;;5118152;28;20531;-71
2022/01/23 16:25:22;;;;;;;5.90;3.25;;;;;;;;;;5107691;28;20046;-70
2022/01/23 16:27:48;;;;;;;18.52;10.27;;;;;;;;;;5106666;27;20450;-68
2022/01/23 16:30:14;;;;;;;17.15;11.68;;;;;;;;;;5114970;27;20044;-74
2022/01/23 16:32:42;;;;;;;9.25;4.97;;;;;;;;;;5120171;28;20039;-67
2022/01/23 16:35:09;;;;;;;9.27;4.57;;;;;;;;;;5125771;28;20134;-72
2022/01/23 16:37:35;;;;;;;8.60;4.43;;;;;;;;;;5114504;28;20383;-70
2022/01/23 16:40:01;;;;;;;12.18;7.35;;;;;;;;;;5104680;28;20043;-69
2022/01/23 16:42:27;;;;;;;6.47;3.78;;;;;;;;;;5102914;28;20401;-69
2022/01/23 16:44:54;;;;;;;11.50;6.00;;;;;;;;;;5109983;28;20104;-69
2022/01/23 16:47:20;;;;;;;8.00;5.75;;;;;;;;;;5129115;27;20566;-69
2022/01/23 16:49:46;;;;;;;4.57;2.60;;;;;;;;;;5109941;28;20067;-70
2022/01/23 16:52:12;;;;;;;4.60;2.15;;;;;;;;;;5095829;28;20039;-70
2022/01/23 16:54:39;;;;;;;6.78;2.42;;;;;;;;;;5117037;27;20051;-70
2022/01/23 16:57:05;;;;;;;5.38;2.45;;;;;;;;;;5112791;28;20150;-69
2022/01/23 16:59:31;;;;;;;5.35;2.75;;;;;;;;;;5109921;27;20048;-70
2022/01/23 17:01:58;;;;;;;7.30;2.17;;;;;;;;;;5102038;28;20043;-70
2022/01/23 17:04:24;;;;;;;8.45;3.40;;;;;;;;;;5115475;28;20040;-69
2022/01/23 17:06:50;;;;;;;6.50;3.22;;;;;;;;;;5117515;28;20051;-70
2022/01/23 17:09:16;;;;;;;6.18;3.25;;;;;;;;;;5123020;28;20047;-70
2022/01/23 17:11:42;;;;;;;7.80;3.60;;;;;;;;;;5124162;28;20148;-70
2022/01/23 17:14:11;;;;;;;7.03;3.95;;;;;;;;;;5126524;28;20079;-69
2022/01/23 17:16:37;;;;;;;6.13;3.88;;;;;;;;;;5119365;27;20055;-69
2022/01/23 17:19:05;;;;;;;5.72;3.08;;;;;;;;;;5111624;28;20425;-69
2022/01/23 17:21:31;;;;;;;7.03;3.40;;;;;;;;;;5103943;28;20054;-70
2022/01/23 17:23:57;;;;;;;15.50;11.30;;;;;;;;;;5093267;28;20593;-70
2022/01/23 17:26:26;;;;;;;19.15;9.57;;;;;;;;;;5090973;28;20494;-71
2022/01/23 17:28:52;;;;;;;10.63;7.25;;;;;;;;;;5092696;28;20131;-69
2022/01/23 17:31:18;;;;;;;7.47;4.70;;;;;;;;;;5091444;28;20123;-72
2022/01/23 17:33:44;;;;;;;10.65;7.10;;;;;;;;;;5097478;28;20046;-74
2022/01/23 17:36:10;;;;;;;18.73;11.77;;;;;;;;;;5100197;28;20041;-73
2022/01/23 17:38:38;;;;;;;8.85;5.07;;;;;;;;;;5104613;28;20479;-74
2022/01/23 17:41:05;;;;;;;13.40;7.60;;;;;;;;;;5090416;28;20036;-74
2022/01/23 17:43:31;;;;;;;13.55;8.98;;;;;;;;;;5091734;28;20075;-73
2022/01/23 17:45:59;;;;;;;16.20;9.60;;;;;;;;;;5099766;28;20532;-73
2022/01/23 17:48:47;;;;;;;12.98;7.43;;;;;;;;;;5098708;28;20489;-79
2022/01/23 17:51:15;;;;;;;8.05;4.70;;;;;;;;;;5100718;28;20517;-76
2022/01/23 17:53:41;;;;;;;6.43;3.75;;;;;;;;;;5088557;28;20513;-77
2022/01/23 17:56:07;;;;;;;23.17;15.55;;;;;;;;;;5101816;28;20433;-77
2022/01/23 17:58:33;;;;;;;8.30;5.18;;;;;;;;;;5099539;28;20051;-77
2022/01/23 18:01:03;;;;;;;9.70;5.72;;;;;;;;;;5105552;28;20040;-77
2022/01/23 18:03:29;;;;;;;11.88;9.10;;;;;;;;;;5091662;28;20059;-77
2022/01/23 18:05:59;;;;;;;10.90;9.13;;;;;;;;;;5081403;28;20502;-74
2022/01/23 18:08:25;;;;;;;22.67;16.27;;;;;;;;;;5096333;28;20101;-74
2022/01/23 18:10:51;;;;;;;9.77;6.22;;;;;;;;;;5085823;28;20055;-74
2022/01/23 18:13:21;;;;;;;11.40;8.30;;;;;;;;;;5085691;28;20040;-74
2022/01/23 18:15:47;;;;;;;8.00;6.07;;;;;;;;;;5088807;28;20114;-74
2022/01/23 18:18:13;;;;;;;6.40;3.75;;;;;;;;;;5088900;28;20047;-74
2022/01/23 18:20:39;;;;;;;5.30;3.90;;;;;;;;;;5100573;28;20043;-74
2022/01/23 18:23:06;;;;;;;5.72;3.00;;;;;;;;;;5094151;28;20066;-74
2022/01/23 18:25:33;;;;;;;6.57;4.53;;;;;;;;;;5089000;28;20051;-74
2022/01/23 18:28:00;;;;;;;6.30;3.70;;;;;;;;;;5092522;28;20052;-75
2022/01/23 18:30:26;;;;;;;6.68;3.80;;;;;;;;;;5093434;28;20097;-73
2022/01/23 18:32:54;;;;;;;6.93;3.70;;;;;;;;;;5095996;28;20051;-74
2022/01/23 18:35:20;;;;;;;10.75;2.47;;;;;;;;;;5080418;28;20096;-74
2022/01/23 18:37:47;;;;;;;7.88;5.57;;;;;;;;;;5089084;28;20074;-74
2022/01/23 18:40:13;;;;;;;9.88;7.88;;;;;;;;;;5098703;28;20044;-75
2022/01/23 18:42:39;;;;;;;6.68;4.50;;;;;;;;;;5087842;28;20040;-79
2022/01/23 18:45:05;;;;;;;10.27;6.55;;;;;;;;;;5084159;28;20067;-72
2022/01/23 18:47:31;;;;;;;11.00;8.10;;;;;;;;;;5098811;28;20044;-72
2022/01/23 18:49:57;;;;;;;10.98;6.53;;;;;;;;;;5097785;28;20113;-72
2022/01/23 18:52:24;;;;;;;15.57;10.25;;;;;;;;;;5089412;28;20482;-72
2022/01/23 18:55:05;;;;;;;10.57;5.72;;;;;;;;;;5097792;28;20478;-72
2022/01/23 18:57:38;;;;;;;8.15;3.90;;;;;;;;;;5091199;28;20087;-72
2022/01/23 19:00:09;;;;;;;11.00;7.07;;;;;;;;;;5096049;28;20052;-72
2022/01/23 19:02:53;;;;;;;17.20;10.80;;;;;;;;;;5091688;28;20051;-72
2022/01/23 19:05:32;;;;;;;12.90;9.68;;;;;;;;;;5090323;28;20436;-72
2022/01/23 19:08:06;;;;;;;11.98;6.70;;;;;;;;;;5087275;28;20047;-70
2022/01/23 19:10:39;;;;;;;17.40;11.63;;;;;;;;;;5092053;28;20134;-71
2022/01/23 19:13:06;;;;;;;22.25;16.00;;;;;;;;;;5088803;28;20136;-72
2022/01/23 19:15:32;;;;;;;20.02;13.10;;;;;;;;;;5094954;28;20503;-72
2022/01/23 19:17:58;;;;;;;16.27;10.40;;;;;;;;;;5092543;28;21486;-72
2022/01/23 19:20:24;;;;;;;8.60;3.85;;;;;;;;;;5082090;28;20066;-72
2022/01/23 19:22:51;;;;;;;11.68;6.40;;;;;;;;;;5089431;28;20100;-72
2022/01/23 19:25:18;;;;;;;6.70;3.38;;;;;;;;;;5083004;28;20474;-72
2022/01/23 19:27:48;;;;;;;6.47;3.13;;;;;;;;;;5090453;28;20136;-72
2022/01/23 19:30:18;;;;;;;9.18;5.15;;;;;;;;;;5090085;28;20048;-72
2022/01/23 19:32:45;;;;;;;10.88;8.43;;;;;;;;;;5089436;28;20047;-72
2022/01/23 19:35:11;;;;;;;11.60;7.78;;;;;;;;;;5091395;28;20082;-71
2022/01/23 19:37:40;;;;;;;13.80;9.20;;;;;;;;;;5098464;28;20126;-71
2022/01/23 19:40:06;;;;;;;22.75;16.30;;;;;;;;;;5108664;28;20078;-71
2022/01/23 19:45:27;;;;;;;12.25;9.75;;;;;;;;;;5074384;28;20040;-71
2022/01/23 19:48:02;;;;;;;10.77;5.78;;;;;;;;;;5097560;28;20051;-72
2022/01/23 19:50:28;;;;;;;10.00;6.85;;;;;;;;;;5090495;28;20052;-74
2022/01/23 19:52:54;;;;;;;10.57;7.00;;;;;;;;;;5096752;28;20058;-74
2022/01/23 19:55:20;;;;;;;10.60;7.18;;;;;;;;;;5089303;28;20490;-71
2022/01/23 19:57:46;;;;;;;9.90;6.07;;;;;;;;;;5080836;28;20390;-70
2022/01/23 20:00:18;;;;;;;9.02;5.50;;;;;;;;;;5099480;28;20097;-71
2022/01/23 20:02:44;;;;;;;10.73;4.28;;;;;;;;;;5093762;28;20040;-71
2022/01/23 20:05:10;;;;;;;8.45;4.90;;;;;;;;;;5091162;28;20040;-72
2022/01/23 20:07:36;;;;;;;6.32;3.67;;;;;;;;;;5097566;28;20129;-72
2022/01/23 20:10:23;;;;;;;6.90;4.55;;;;;;;;;;5089181;28;20053;-73
2022/01/23 20:12:52;;;;;;;8.02;4.30;;;;;;;;;;5083923;28;20048;-67
2022/01/23 20:15:18;;;;;;;8.63;4.10;;;;;;;;;;5109303;28;20047;-67
2022/01/23 20:17:44;;;;;;;41.17;27.50;;;;;;;;;;5089623;28;20075;-72
2022/01/23 20:20:12;;;;;;;11.63;7.53;;;;;;;;;;5111657;27;20043;-72
2022/01/23 20:22:38;;;;;;;17.00;10.32;;;;;;;;;;5102054;28;20062;-72
2022/01/23 20:25:05;;;;;;;8.27;5.75;;;;;;;;;;5087145;28;20052;-71
2022/01/23 20:27:31;;;;;;;7.60;4.97;;;;;;;;;;5091803;28;20118;-71
2022/01/23 20:29:57;;;;;;;22.65;17.02;;;;;;;;;;5079598;28;20557;-71
2022/01/23 20:32:23;;;;;;;10.20;6.57;;;;;;;;;;5088958;28;20123;-71
2022/01/23 20:34:49;;;;;;;10.18;5.38;;;;;;;;;;5079133;28;20469;-71
2022/01/23 20:37:18;;;;;;;13.00;6.85;;;;;;;;;;5090989;28;20051;-71
2022/01/23 20:39:44;;;;;;;9.93;7.03;;;;;;;;;;5089811;28;20078;-71
2022/01/23 20:42:10;;;;;;;8.93;6.20;;;;;;;;;;5082517;28;20078;-71
2022/01/23 20:44:38;;;;;;;9.30;5.55;;;;;;;;;;5076675;28;20040;-71
2022/01/23 20:47:10;;;;;;;8.60;5.50;;;;;;;;;;5083993;28;20089;-70
2022/01/23 20:49:36;;;;;;;8.90;4.90;;;;;;;;;;5093765;28;20055;-70
2022/01/23 20:52:10;;;;;;;9.13;6.00;;;;;;;;;;5083560;28;20052;-71
2022/01/23 20:54:36;;;;;;;8.00;5.18;;;;;;;;;;5073824;28;20055;-70
2022/01/23 20:57:03;;;;;;;8.52;5.15;;;;;;;;;;5093093;28;20089;-71
2022/01/23 20:59:29;;;;;;;7.70;5.20;;;;;;;;;;5085275;28;20045;-71
2022/01/23 21:01:55;;;;;;;13.45;11.05;;;;;;;;;;5086889;28;20047;-71
2022/01/23 21:04:21;;;;;;;12.18;8.20;;;;;;;;;;5102701;27;20399;-71
2022/01/23 21:06:47;;;;;;;15.73;8.68;;;;;;;;;;5084933;28;20044;-70
2022/01/23 21:09:14;;;;;;;10.40;6.72;;;;;;;;;;5088489;28;20052;-71
2022/01/23 21:11:40;;;;;;;8.00;5.20;;;;;;;;;;5089759;28;20058;-70
2022/01/23 21:14:17;;;;;;;14.00;9.20;;;;;;;;;;5090941;28;20070;-71
2022/01/23 21:38:54;;;;;;;9.93;6.85;;;;;;;;;;5095180;28;20052;-71
2022/01/23 21:41:04;;;;;;;8.25;5.20;;;;;;;;;;5084932;28;20450;-71
2022/01/23 21:43:30;;;;;;;6.47;4.28;;;;;;;;;;5093834;28;20483;-71
2022/01/23 21:45:56;;;;;;;8.95;4.47;;;;;;;;;;5083858;28;20100;-71
2022/01/23 21:48:22;;;;;;;8.65;5.72;;;;;;;;;;5081689;28;20398;-72
2022/01/23 21:50:49;;;;;;;7.75;4.30;;;;;;;;;;5093273;28;20048;-72
2022/01/23 21:53:16;;;;;;;8.10;4.40;;;;;;;;;;5098541;28;20039;-72
2022/01/23 21:55:42;;;;;;;9.70;4.40;;;;;;;;;;5099755;28;20085;-72
2022/01/23 21:58:13;;;;;;;11.48;6.88;;;;;;;;;;5103846;28;20048;-72
2022/01/23 22:00:39;;;;;;;15.95;9.15;;;;;;;;;;5103087;28;20051;-72
2022/01/23 22:03:05;;;;;;;13.63;9.13;;;;;;;;;;5111461;28;20126;-72
2022/01/23 22:05:31;;;;;;;21.35;11.65;;;;;;;;;;5103175;28;20655;-72
2022/01/23 22:07:57;;;;;;;12.32;6.82;;;;;;;;;;5109943;28;20126;-72
2022/01/23 22:18:08;;;;;;;15.27;8.25;;;;;;;;;;5088257;28;20123;-72
2022/01/23 22:20:34;;;;;;;8.90;4.72;;;;;;;;;;5102453;28;20406;-72
2022/01/23 22:28:13;;;;;;;6.68;4.10;;;;;;;;;;5084325;28;20048;-71
2022/01/23 22:30:39;;;;;;;7.20;3.83;;;;;;;;;;5091182;28;20055;-72
2022/01/23 22:33:05;;;;;;;7.95;4.30;;;;;;;;;;5092520;28;20501;-71
2022/01/23 22:35:31;;;;;;;7.10;4.07;;;;;;;;;;5096556;28;20050;-72
2022/01/23 22:37:58;;;;;;;7.93;4.20;;;;;;;;;;5097980;28;20039;-72
2022/01/23 22:40:25;;;;;;;6.40;3.97;;;;;;;;;;5091307;28;20044;-72
2022/01/23 22:42:51;;;;;;;9.50;4.38;;;;;;;;;;5109998;27;20036;-71
2022/01/23 22:45:30;;;;;;;6.90;3.97;;;;;;;;;;5093104;28;20044;-72
2022/01/23 22:47:56;;;;;;;7.32;4.05;;;;;;;;;;5099522;28;20036;-71
2022/01/23 22:50:22;;;;;;;7.05;3.90;;;;;;;;;;5094383;28;20052;-72
2022/01/23 22:52:48;;;;;;;6.88;3.92;;;;;;;;;;5097674;28;20040;-74
2022/01/23 22:55:14;;;;;;;6.28;3.65;;;;;;;;;;5094409;28;20048;-73
2022/01/23 22:57:40;;;;;;;7.07;4.05;;;;;;;;;;5082966;28;20086;-72
2022/01/23 23:00:08;;;;;;;9.43;4.20;;;;;;;;;;5095378;28;20036;-71
2022/01/23 23:02:34;;;;;;;7.03;3.95;;;;;;;;;;5093102;28;20032;-71
2022/01/23 23:05:00;;;;;;;7.07;4.15;;;;;;;;;;5101556;28;20402;-69
2022/01/23 23:07:27;;;;;;;10.07;4.47;;;;;;;;;;5090911;28;20035;-71
2022/01/23 23:09:53;;;;;;;7.15;4.32;;;;;;;;;;5089313;28;20510;-72
2022/01/23 23:12:28;;;;;;;7.68;4.10;;;;;;;;;;5099817;28;20075;-71
2022/01/23 23:14:54;;;;;;;8.52;4.25;;;;;;;;;;5082747;28;20075;-71
2022/01/23 23:17:22;;;;;;;7.50;4.15;;;;;;;;;;5096819;28;20047;-71
2022/01/23 23:20:00;;;;;;;8.15;4.28;;;;;;;;;;5089673;28;20521;-71
2022/01/23 23:22:26;;;;;;;6.10;3.63;;;;;;;;;;5092303;28;20437;-71
2022/01/23 23:24:52;;;;;;;7.25;3.85;;;;;;;;;;5093420;28;20044;-71
2022/01/23 23:27:19;;;;;;;8.38;4.45;;;;;;;;;;5083807;28;20048;-71
2022/01/23 23:29:45;;;;;;;7.28;4.13;;;;;;;;;;5104938;28;20131;-71
2022/01/23 23:32:11;;;;;;;6.70;3.78;;;;;;;;;;5094594;28;20127;-72
2022/01/23 23:34:37;;;;;;;8.07;4.10;;;;;;;;;;5078742;28;20045;-72
2022/01/23 23:37:03;;;;;;;6.80;3.90;;;;;;;;;;5088124;28;20047;-72
2022/01/23 23:39:40;;;;;;;8.25;4.18;;;;;;;;;;5099899;28;20055;-72
2022/01/23 23:42:13;;;;;;;7.53;3.95;;;;;;;;;;5085009;28;20040;-70
2022/01/23 23:44:44;;;;;;;7.63;3.72;;;;;;;;;;5093090;28;20466;-71
2022/01/23 23:47:10;;;;;;;7.43;4.43;;;;;;;;;;5098600;28;20058;-70
2022/01/23 23:49:39;;;;;;;7.30;3.95;;;;;;;;;;5087255;28;20479;-70
2022/01/23 23:52:17;;;;;;;7.30;4.28;;;;;;;;;;5096523;28;20051;-70
2022/01/23 23:54:43;;;;;;;7.10;4.38;;;;;;;;;;5076937;28;20131;-70
2022/01/23 23:57:09;;;;;;;6.68;3.88;;;;;;;;;;5091153;28;20051;-71
2022/01/23 23:59:35;;;;;;;7.88;4.28;;;;;;;;;;5084552;28;20047;-71
